Strona główna
METAR-TAF:

METAR-TAF

Lotnisko :

Port lotniczy Krajowa

Krajowa, Rumunia

Szerokość geograficzna: 44-14N, Długość geograficzna: 023-52E, wysokość: 192 m

Aktualna obserwacja pogody

Raport powstał 34 minut temu, godzina 00:30 UTC
Wiatr 7 kt od zachodnio-północny zachód
Temperatura 0°C
Wilgotność 93%
Ciśnienie 1026 hPa
Widzialność: 9000 m

METAR: LRCV 230030Z 29007KT 9000 NSC 00/M01 Q1026

czas: 03:04 (01:04 UTC)

Prognoza

Raport powstał 2 godziny i 4 minut temu, godzina 23:00 UTC
Prognoza ważna od 23 godzina 00 UTC do 23 godzina 09 UTC
Wiatr 8 kt od zachód
Widzialność 10 km lub więcej
Brak chmur poniżej 1500 m i brak chmur cumulonimbus

TAF: LRCV 222300Z 2300/2309 26008KT CAVOK

Obserwacja i prognoza pogody dla ponad 4000 lotnisk (raport METAR i TAF).

Dostępne stacje oznaczono żółtymi i czerwonymi punktami na mapie.

Najedź kursorem aby zobaczyć nazwę stacji.

Kliknij aby zobaczyć obserwacje i prognozy pogody.

Aby zmienić mapę: kliknij na zielony przycisk z czarnym krzyżykiem, aby powiększyć; na zielony przycisk z myślnikiem, aby pomniejszyć; na zielone strzałki, aby przejść do map sąsiednich.


METAR-TAF: